Map

Track Data

SID SEASON NUMBER BASIN SUBBASIN NAME ISO_TIME NATURE LAT LON WMO_WIND WMO_PRES WMO_AGENCY TRACK_TYPE DIST2LAND LANDFALL IFLAG USA_AGENCY USA_ATCF_ID USA_LAT USA_LON USA_RECORD USA_STATUS USA_WIND USA_PRES USA_SSHS USA_R34_NE USA_R34_SE USA_R34_SW USA_R34_NW USA_R50_NE USA_R50_SE USA_R50_SW USA_R50_NW USA_R64_NE USA_R64_SE USA_R64_SW USA_R64_NW USA_POCI USA_ROCI USA_RMW USA_EYE TOKYO_LAT TOKYO_LON TOKYO_GRADE TOKYO_WIND TOKYO_PRES TOKYO_R50_DIR TOKYO_R50_LONG TOKYO_R50_SHORT TOKYO_R30_DIR TOKYO_R30_LONG TOKYO_R30_SHORT TOKYO_LAND CMA_LAT CMA_LON CMA_CAT CMA_WIND CMA_PRES HKO_LAT HKO_LON HKO_CAT HKO_WIND HKO_PRES NEWDELHI_LAT NEWDELHI_LON NEWDELHI_GRADE NEWDELHI_WIND NEWDELHI_PRES NEWDELHI_CI NEWDELHI_DP NEWDELHI_POCI REUNION_LAT REUNION_LON REUNION_TYPE REUNION_WIND REUNION_PRES REUNION_TNUM REUNION_CI REUNION_RMW REUNION_R34_NE REUNION_R34_SE REUNION_R34_SW REUNION_R34_NW REUNION_R50_NE REUNION_R50_SE REUNION_R50_SW REUNION_R50_NW REUNION_R64_NE REUNION_R64_SE REUNION_R64_SW REUNION_R64_NW BOM_LAT BOM_LON BOM_TYPE BOM_WIND BOM_PRES BOM_TNUM BOM_CI BOM_RMW BOM_R34_NE BOM_R34_SE BOM_R34_SW BOM_R34_NW BOM_R50_NE BOM_R50_SE BOM_R50_SW BOM_R50_NW BOM_R64_NE BOM_R64_SE BOM_R64_SW BOM_R64_NW BOM_ROCI BOM_POCI BOM_EYE BOM_POS_METHOD BOM_PRES_METHOD NADI_LAT NADI_LON NADI_CAT NADI_WIND NADI_PRES WELLINGTON_LAT WELLINGTON_LON WELLINGTON_WIND WELLINGTON_PRES DS824_LAT DS824_LON DS824_STAGE DS824_WIND DS824_PRES TD9636_LAT TD9636_LON TD9636_STAGE TD9636_WIND TD9636_PRES TD9635_LAT TD9635_LON TD9635_WIND TD9635_PRES TD9635_ROCI NEUMANN_LAT NEUMANN_LON NEUMANN_CLASS NEUMANN_WIND NEUMANN_PRES MLC_LAT MLC_LON MLC_CLASS MLC_WIND MLC_PRES USA_GUST BOM_GUST BOM_GUST_PER REUNION_GUST REUNION_GUST_PER USA_SEAHGT USA_SEARAD_NE USA_SEARAD_SE USA_SEARAD_SW USA_SEARAD_NW STORM_SPEED STORM_DIR
1902040S18070 1902 10 SI MM NOT_NAMED 1902-02-09 00:00:00 TS -17.6000 70.1000 main 1328 1294 _________O____ -1 -17.6000 70.1000 TC 7 256
1902040S18070 1902 10 SI MM NOT_NAMED 1902-02-09 03:00:00 TS -17.6877 69.7400 main 1284 1250 _________P____ -1 -17.6877 69.7400 TC 7 253
1902040S18070 1902 10 SI MM NOT_NAMED 1902-02-09 06:00:00 TS -17.8000 69.4000 main 1250 1217 _________O____ -1 -17.8000 69.4000 TC 7 247
1902040S18070 1902 10 SI MM NOT_NAMED 1902-02-09 09:00:00 TS -17.9499 69.0925 main 1217 1180 _________P____ -1 -17.9499 69.0925 TC 6 242
1902040S18070 1902 10 SI MM NOT_NAMED 1902-02-09 12:00:00 TS -18.1000 68.8000 main 1180 1147 _________O____ -1 -18.1000 68.8000 TC 6 246
1902040S18070 1902 10 SI MM NOT_NAMED 1902-02-09 15:00:00 TS -18.2000 68.4999 main 1147 1113 _________P____ -1 -18.2000 68.4999 TC 6 251
1902040S18070 1902 10 SI MM NOT_NAMED 1902-02-09 18:00:00 TS -18.3000 68.2000 main 1113 1080 _________O____ -1 -18.3000 68.2000 TC 6 247
1902040S18070 1902 10 SI MM NOT_NAMED 1902-02-09 21:00:00 TS -18.4424 67.9075 main 1080 1044 _________P____ -1 -18.4424 67.9075 TC 6 242
1902040S18070 1902 10 SI MM NOT_NAMED 1902-02-10 00:00:00 TS -18.6000 67.6000 main 1044 1011 _________O____ -1 -18.6000 67.6000 TC 7 243
1902040S18070 1902 10 SI MM NOT_NAMED 1902-02-10 03:00:00 TS -18.7574 67.2650 main 1009 965 _________P____ -1 -18.7574 67.2650 TC 7 246
1902040S18070 1902 10 SI MM NOT_NAMED 1902-02-10 06:00:00 TS -18.9000 66.9000 main 965 922 _________O____ -1 -18.9000 66.9000 TC 8 251
1902040S18070 1902 10 SI MM NOT_NAMED 1902-02-10 09:00:00 TS -19.0075 66.4924 main 922 879 _________P____ -1 -19.0075 66.4924 TC 8 255
1902040S18070 1902 10 SI MM NOT_NAMED 1902-02-10 12:00:00 TS -19.1000 66.1000 main 879 846 _________O____ -1 -19.1000 66.1000 TC 7 255
1902040S18070 1902 10 SI MM NOT_NAMED 1902-02-10 15:00:00 TS -19.1924 65.7774 main 846 813 _________P____ -1 -19.1924 65.7774 TC 6 251
1902040S18070 1902 10 SI MM NOT_NAMED 1902-02-10 18:00:00 TS -19.3000 65.5000 main 813 790 _________O____ -1 -19.3000 65.5000 TC 5 242
1902040S18070 1902 10 SI MM NOT_NAMED 1902-02-10 21:00:00 TS -19.4422 65.2799 main 790 756 _________P____ -1 -19.4422 65.2799 TC 6 237
1902040S18070 1902 10 SI MM NOT_NAMED 1902-02-11 00:00:00 TS -19.6000 65.0000 main 756 713 _________O____ -1 -19.6000 65.0000 TC 8 247
1902040S18070 1902 10 SI MM NOT_NAMED 1902-02-11 03:00:00 TS -19.7426 64.5374 main 703 648 _________P____ -1 -19.7426 64.5374 TC 10 252
1902040S18070 1902 10 SI MM NOT_NAMED 1902-02-11 06:00:00 TS -19.9000 64.0000 main 648 595 _________O____ -1 -19.9000 64.0000 TC 10 250
1902040S18070 1902 10 SI MM NOT_NAMED 1902-02-11 09:00:00 TS -20.0924 63.4999 main 595 542 _________P____ -1 -20.0924 63.4999 TC 10 247
1902040S18070 1902 10 SI MM NOT_NAMED 1902-02-11 12:00:00 TS -20.3000 63.0000 main 542 490 _________O____ -1 -20.3000 63.0000 TC 10 247
1902040S18070 1902 10 SI MM NOT_NAMED 1902-02-11 15:00:00 TS -20.4924 62.4998 main 490 439 _________P____ -1 -20.4924 62.4998 TC 10 247
1902040S18070 1902 10 SI MM NOT_NAMED 1902-02-11 18:00:00 TS -20.7000 62.0000 main 439 390 _________O____ -1 -20.7000 62.0000 TC 11 244
1902040S18070 1902 10 SI MM NOT_NAMED 1902-02-11 21:00:00 TS -20.9500 61.4851 main 390 347 _________P____ -1 -20.9500 61.4851 TC 11 242
1902040S18070 1902 10 SI MM NOT_NAMED 1902-02-12 00:00:00 TS -21.2000 61.0000 main 347 315 _________O____ -1 -21.2000 61.0000 TC 10 241
1902040S18070 1902 10 SI MM NOT_NAMED 1902-02-12 03:00:00 TS -21.4073 60.5848 main 315 287 _________P____ -1 -21.4073 60.5848 TC 8 242
1902040S18070 1902 10 SI MM NOT_NAMED 1902-02-12 06:00:00 TS -21.6000 60.2000 main 287 261 _________O____ -1 -21.6000 60.2000 TC 8 242
1902040S18070 1902 10 SI MM NOT_NAMED 1902-02-12 09:00:00 TS -21.7999 59.7999 main 261 243 _________P____ -1 -21.7999 59.7999 TC 8 242
1902040S18070 1902 10 SI MM NOT_NAMED 1902-02-12 12:00:00 TS -22.0000 59.4000 main 243 230 _________O____ -1 -22.0000 59.4000 TC 8 242
1902040S18070 1902 10 SI MM NOT_NAMED 1902-02-12 15:00:00 TS -22.1924 58.9998 main 232 226 _________P____ -1 -22.1924 58.9998 TC 8 242
1902040S18070 1902 10 SI MM NOT_NAMED 1902-02-12 18:00:00 TS -22.4000 58.6000 main 231 228 _________O____ -1 -22.4000 58.6000 TC 9 239
1902040S18070 1902 10 SI MM NOT_NAMED 1902-02-12 21:00:00 TS -22.6402 58.2004 main 240 240 _________P____ -1 -22.6402 58.2004 TC 9 236
1902040S18070 1902 10 SI MM NOT_NAMED 1902-02-13 00:00:00 TS -22.9000 57.8000 main 268 _________O____ -1 -22.9000 57.8000 TC 9 235

About IBTrACS Database

This database is a web-friendly format of International Best Track Archive for Climate Stewardship (IBTrACS), a global best track data archive curated by NOAA dating back to 1842.

Updated: 2021-11-26